Time,TemperatureF,DewpointF,PressureIn,WindDirection,WindDirectionDegrees,WindSpeedMPH,WindSpeedGustMPH,Humidity,HourlyPrecipIn,Conditions,Clouds,dailyrainin,SoftwareType,DateUTC
2013-07-21 00:14:00,65.3,59.0,29.85,ENE,71,0.0,-999.0,80,-99.99,,,0.00,weatherlink.com 1.10,2013-07-21 07:14:00,
2013-07-21 00:29:00,65.1,60.0,29.84,ENE,71,0.0,-999.0,83,-99.99,,,0.00,weatherlink.com 1.10,2013-07-21 07:29:00,
2013-07-21 00:44:00,63.8,60.0,29.84,ENE,71,0.0,-999.0,87,-99.99,,,0.00,weatherlink.com 1.10,2013-07-21 07:44:00,
2013-07-21 00:59:00,63.1,60.0,29.84,ENE,71,0.0,-999.0,88,-99.99,,,0.00,weatherlink.com 1.10,2013-07-21 07:59:00,
2013-07-21 01:14:00,63.1,60.0,29.85,ENE,71,0.0,-999.0,89,-99.99,,,0.00,weatherlink.com 1.10,2013-07-21 08:14:00,
2013-07-21 01:29:00,63.4,60.0,29.85,ENE,71,0.0,-999.0,88,-99.99,,,0.00,weatherlink.com 1.10,2013-07-21 08:29:00,
2013-07-21 01:44:00,63.1,60.0,29.84,ENE,71,0.0,-999.0,89,-99.99,,,0.00,weatherlink.com 1.10,2013-07-21 08:44:00,
2013-07-21 02:43:00,62.8,59.0,29.84,ENE,69,3.0,-999.0,87,-99.99,,,0.00,weatherlink.com 1.10,2013-07-21 09:43:00,
2013-07-21 02:58:00,63.3,59.0,29.84,ENE,69,4.0,-999.0,86,-99.99,,,0.00,weatherlink.com 1.10,2013-07-21 09:58:00,
2013-07-21 03:13:00,63.9,58.0,29.85,ENE,70,7.0,-999.0,82,-99.99,,,0.00,weatherlink.com 1.10,2013-07-21 10:13:00,
2013-07-21 03:28:00,65.6,61.0,29.84,ENE,69,3.0,-999.0,84,-99.99,,,0.00,weatherlink.com 1.10,2013-07-21 10:28:00,
2013-07-21 03:43:00,67.7,61.0,29.84,ENE,70,0.0,-999.0,79,-99.99,,,0.00,weatherlink.com 1.10,2013-07-21 10:43:00,
2013-07-21 03:58:00,65.4,59.0,29.84,ENE,70,5.0,-999.0,81,-99.99,,,0.00,weatherlink.com 1.10,2013-07-21 10:58:00,
2013-07-21 04:13:00,63.8,59.0,29.83,ENE,68,4.0,-999.0,85,-99.99,,,0.00,weatherlink.com 1.10,2013-07-21 11:13:00,
2013-07-21 04:28:00,65.8,59.0,29.83,ENE,71,4.0,-999.0,78,-99.99,,,0.00,weatherlink.com 1.10,2013-07-21 11:28:00,
2013-07-21 04:43:00,65.8,58.0,29.83,ENE,71,0.0,-999.0,77,-99.99,,,0.00,weatherlink.com 1.10,2013-07-21 11:43:00,
2013-07-21 04:58:00,65.8,57.0,29.84,ENE,72,0.0,-999.0,74,-99.99,,,0.00,weatherlink.com 1.10,2013-07-21 11:58:00,
2013-07-21 05:13:00,66.7,55.0,29.84,ENE,73,2.0,-999.0,67,-99.99,,,0.00,weatherlink.com 1.10,2013-07-21 12:13:00,
2013-07-21 05:28:00,67.1,57.0,29.84,ENE,73,5.0,-999.0,70,-99.99,,,0.00,weatherlink.com 1.10,2013-07-21 12:28:00,
2013-07-21 05:43:00,67.1,59.0,29.84,ENE,73,2.0,-999.0,75,-99.99,,,0.00,weatherlink.com 1.10,2013-07-21 12:43:00,
2013-07-21 05:58:00,67.3,59.0,29.84,ENE,73,5.0,-999.0,74,-99.99,,,0.00,weatherlink.com 1.10,2013-07-21 12:58:00,
2013-07-21 06:13:00,66.7,57.0,29.84,ENE,71,0.0,-999.0,72,-99.99,,,0.00,weatherlink.com 1.10,2013-07-21 13:13:00,
2013-07-21 06:28:00,67.6,53.0,29.84,ENE,71,0.0,-999.0,60,-99.99,,,0.00,weatherlink.com 1.10,2013-07-21 13:28:00,
2013-07-21 06:43:00,68.7,48.0,29.83,ENE,71,0.0,-999.0,48,-99.99,,,0.00,weatherlink.com 1.10,2013-07-21 13:43:00,
2013-07-21 06:58:00,71.5,47.0,29.83,ENE,74,0.0,-999.0,42,-99.99,,,0.00,weatherlink.com 1.10,2013-07-21 13:58:00,
2013-07-21 07:13:00,71.5,53.0,29.84,East,80,0.0,-999.0,53,-99.99,,,0.00,weatherlink.com 1.10,2013-07-21 14:13:00,
2013-07-21 07:28:00,69.6,57.0,29.84,East,80,4.0,-999.0,65,-99.99,,,0.00,weatherlink.com 1.10,2013-07-21 14:28:00,
2013-07-21 07:43:00,70.6,55.0,29.85,ENE,73,0.0,-999.0,58,-99.99,,,0.00,weatherlink.com 1.10,2013-07-21 14:43:00,
2013-07-21 07:58:00,72.3,53.0,29.85,ENE,73,1.0,-999.0,50,-99.99,,,0.00,weatherlink.com 1.10,2013-07-21 14:58:00,
2013-07-21 08:13:00,73.1,55.0,29.85,ENE,73,3.0,-999.0,53,-99.99,,,0.00,weatherlink.com 1.10,2013-07-21 15:13:00,
2013-07-21 08:28:00,73.7,50.0,29.85,ENE,73,0.0,-999.0,43,-99.99,,,0.00,weatherlink.com 1.10,2013-07-21 15:28:00,
2013-07-21 08:43:00,74.0,55.0,29.86,ENE,73,0.0,-999.0,51,-99.99,,,0.00,weatherlink.com 1.10,2013-07-21 15:43:00,
2013-07-21 09:14:00,70.6,56.0,29.87,ENE,73,0.0,-999.0,61,-99.99,,,0.00,weatherlink.com 1.10,2013-07-21 16:14:00,
2013-07-21 09:29:00,69.1,56.0,29.87,ENE,73,0.0,-999.0,63,-99.99,,,0.00,weatherlink.com 1.10,2013-07-21 16:29:00,
2013-07-21 09:44:00,69.9,56.0,29.88,ENE,73,0.0,-999.0,62,-99.99,,,0.00,weatherlink.com 1.10,2013-07-21 16:44:00,
2013-07-21 09:59:00,70.8,57.0,29.88,ENE,74,0.0,-999.0,63,-99.99,,,0.00,weatherlink.com 1.10,2013-07-21 16:59:00,
2013-07-21 10:14:00,70.0,58.0,29.89,ENE,76,0.0,-999.0,66,-99.99,,,0.00,weatherlink.com 1.10,2013-07-21 17:14:00,
2013-07-21 10:29:00,69.3,57.0,29.90,ENE,73,4.0,-999.0,66,-99.99,,,0.00,weatherlink.com 1.10,2013-07-21 17:29:00,
2013-07-21 10:58:00,70.7,57.0,29.90,ENE,69,0.0,-999.0,63,-99.99,,,0.00,weatherlink.com 1.10,2013-07-21 17:58:00,
2013-07-21 11:13:00,70.2,58.0,29.90,ENE,69,0.0,-999.0,66,-99.99,,,0.00,weatherlink.com 1.10,2013-07-21 18:13:00,
2013-07-21 11:32:00,71.4,58.0,29.90,ENE,69,0.0,-999.0,63,-99.99,,,0.00,weatherlink.com 1.10,2013-07-21 18:32:00,
2013-07-21 11:43:00,71.6,58.0,29.90,ENE,69,0.0,-999.0,62,-99.99,,,0.00,weatherlink.com 1.10,2013-07-21 18:43:00,
2013-07-21 11:58:00,71.3,58.0,29.90,ENE,68,0.0,-999.0,64,-99.99,,,0.00,weatherlink.com 1.10,2013-07-21 18:58:00,
2013-07-21 12:14:00,70.8,61.0,29.90,ENE,68,0.0,-999.0,70,-99.99,,,0.00,weatherlink.com 1.10,2013-07-21 19:14:00,
2013-07-21 12:29:00,67.4,60.0,29.90,ENE,68,1.0,-999.0,78,-99.99,,,0.00,weatherlink.com 1.10,2013-07-21 19:29:00,
2013-07-21 12:44:00,69.9,61.0,29.90,ENE,69,0.0,-999.0,74,-99.99,,,0.00,weatherlink.com 1.10,2013-07-21 19:44:00,
2013-07-21 12:59:00,72.2,59.0,29.91,ENE,69,5.0,-999.0,63,-99.99,,,0.00,weatherlink.com 1.10,2013-07-21 19:59:00,
2013-07-21 13:14:00,73.1,58.0,29.91,ENE,69,0.0,-999.0,59,-99.99,,,0.00,weatherlink.com 1.10,2013-07-21 20:14:00,
2013-07-21 13:29:00,73.7,59.0,29.91,ENE,69,4.0,-999.0,60,-99.99,,,0.00,weatherlink.com 1.10,2013-07-21 20:29:00,
2013-07-21 13:44:00,73.2,55.0,29.91,ENE,72,0.0,-999.0,53,-99.99,,,0.00,weatherlink.com 1.10,2013-07-21 20:44:00,
2013-07-21 13:59:00,72.4,54.0,29.91,ENE,72,0.0,-999.0,53,-99.99,,,0.00,weatherlink.com 1.10,2013-07-21 20:59:00,
2013-07-21 14:14:00,72.1,54.0,29.91,ENE,71,2.0,-999.0,54,-99.99,,,0.00,weatherlink.com 1.10,2013-07-21 21:14:00,
2013-07-21 14:29:00,71.5,55.0,29.91,ENE,70,4.0,-999.0,56,-99.99,,,0.00,weatherlink.com 1.10,2013-07-21 21:29:00,
2013-07-21 14:59:00,69.9,59.0,29.91,ENE,71,0.0,-999.0,69,-99.99,,,0.00,weatherlink.com 1.10,2013-07-21 21:59:00,
2013-07-21 15:14:00,68.3,59.0,29.91,ENE,72,3.0,-999.0,71,-99.99,,,0.00,weatherlink.com 1.10,2013-07-21 22:14:00,
2013-07-21 15:29:00,69.3,57.0,29.91,ENE,71,0.0,-999.0,64,-99.99,,,0.00,weatherlink.com 1.10,2013-07-21 22:29:00,
2013-07-21 15:59:00,69.5,58.0,29.91,ENE,71,0.0,-999.0,66,-99.99,,,0.00,weatherlink.com 1.10,2013-07-21 22:59:00,
2013-07-21 16:14:00,68.9,57.0,29.91,ENE,71,0.0,-999.0,67,-99.99,,,0.00,weatherlink.com 1.10,2013-07-21 23:14:00,
2013-07-21 16:29:00,67.4,57.0,29.91,ENE,71,0.0,-999.0,70,-99.99,,,0.00,weatherlink.com 1.10,2013-07-21 23:29:00,
2013-07-21 16:45:00,66.9,58.0,29.91,ENE,71,0.0,-999.0,73,-99.99,,,0.00,weatherlink.com 1.10,2013-07-21 23:45:00,
2013-07-21 16:58:00,66.7,58.0,29.90,ENE,71,0.0,-999.0,74,-99.99,,,0.00,weatherlink.com 1.10,2013-07-21 23:58:00,
2013-07-21 17:14:00,66.5,58.0,29.90,ENE,71,0.0,-999.0,73,-99.99,,,0.00,weatherlink.com 1.10,2013-07-22 00:14:00,
2013-07-21 17:29:00,65.9,57.0,29.90,ENE,70,3.0,-999.0,74,-99.99,,,0.00,weatherlink.com 1.10,2013-07-22 00:29:00,
2013-07-21 17:44:00,65.1,58.0,29.89,ENE,70,2.0,-999.0,77,-99.99,,,0.00,weatherlink.com 1.10,2013-07-22 00:44:00,
2013-07-21 17:59:00,64.6,58.0,29.90,ENE,71,5.0,-999.0,78,-99.99,,,0.00,weatherlink.com 1.10,2013-07-22 00:59:00,
2013-07-21 18:19:00,64.7,58.0,29.91,ENE,70,6.0,-999.0,78,-99.99,,,0.00,weatherlink.com 1.10,2013-07-22 01:19:00,
2013-07-21 18:29:00,64.8,58.0,29.91,ENE,71,5.0,-999.0,78,-99.99,,,0.00,weatherlink.com 1.10,2013-07-22 01:29:00,
2013-07-21 18:43:00,64.4,58.0,29.91,ENE,72,5.0,-999.0,79,-99.99,,,0.00,weatherlink.com 1.10,2013-07-22 01:43:00,
2013-07-21 19:14:00,63.8,58.0,29.91,ENE,72,5.0,-999.0,81,-99.99,,,0.00,weatherlink.com 1.10,2013-07-22 02:14:00,
2013-07-21 19:29:00,63.5,58.0,29.91,ENE,76,5.0,-999.0,83,-99.99,,,0.00,weatherlink.com 1.10,2013-07-22 02:29:00,
2013-07-21 19:44:00,63.8,58.0,29.91,ENE,74,6.0,-999.0,80,-99.99,,,0.00,weatherlink.com 1.10,2013-07-22 02:44:00,
2013-07-21 19:59:00,63.2,58.0,29.91,ENE,74,5.0,-999.0,82,-99.99,,,0.00,weatherlink.com 1.10,2013-07-22 02:59:00,
2013-07-21 20:14:00,62.9,57.0,29.92,ENE,74,6.0,-999.0,81,-99.99,,,0.00,weatherlink.com 1.10,2013-07-22 03:14:00,
2013-07-21 20:44:00,64.4,52.0,29.93,ENE,70,7.0,-999.0,65,-99.99,,,0.00,weatherlink.com 1.10,2013-07-22 03:44:00,
2013-07-21 21:29:00,65.8,45.0,29.94,ENE,69,3.0,-999.0,47,-99.99,,,0.00,weatherlink.com 1.10,2013-07-22 04:29:00,
2013-07-21 21:46:00,66.8,43.0,29.95,ENE,71,5.0,-999.0,43,-99.99,,,0.00,weatherlink.com 1.10,2013-07-22 04:46:00,
2013-07-21 22:29:00,67.9,46.0,29.96,ENE,69,3.0,-999.0,45,-99.99,,,0.00,weatherlink.com 1.10,2013-07-22 05:29:00,
2013-07-21 22:51:00,68.7,44.0,29.97,ENE,69,0.0,-999.0,41,-99.99,,,0.00,weatherlink.com 1.10,2013-07-22 05:51:00,
2013-07-21 22:59:00,68.5,46.0,29.97,ENE,69,0.0,-999.0,44,-99.99,,,0.00,weatherlink.com 1.10,2013-07-22 05:59:00,
2013-07-21 23:15:00,67.5,46.0,29.97,ENE,70,4.0,-999.0,47,-99.99,,,0.00,weatherlink.com 1.10,2013-07-22 06:15:00,
2013-07-21 23:29:00,67.4,46.0,29.97,ENE,71,3.0,-999.0,46,-99.99,,,0.00,weatherlink.com 1.10,2013-07-22 06:29:00,
2013-07-21 23:44:00,68.9,45.0,29.97,ENE,69,4.0,-999.0,42,-99.99,,,0.00,weatherlink.com 1.10,2013-07-22 06:44:00,